Flight Track Log - Related Links

Times and Time Zones

All times are in EDT time to prevent confusion due to time zone crossing. See the N450S flight status page for this flight to view local times or setup timezone preferences in your user account.

Time Position Orientation Groundspeed Altitude Reporting Facility
EDT Latitude Longitude Course Direction KTS MPH feet Rate Location/Type
Tue 01:37:15 PM 41.3143 -75.6786 124° Southeast  Level FlightAware Approximate
Tue 01:38:15 PM 41.2955 -75.6421 127° Southeast  Level FlightAware Approximate
Tue 01:39:15 PM 41.2754 -75.6068 127° Southeast  Level FlightAware Approximate
Tue 01:40:15 PM 41.2553 -75.5716 127° Southeast  Level FlightAware Approximate
Tue 01:41:15 PM 41.2352 -75.5364 127° Southeast  Level FlightAware Approximate
Tue 01:42:15 PM 41.2151 -75.5012 127° Southeast  Level FlightAware Approximate
Tue 01:43:15 PM 41.1949 -75.4660 127° Southeast  Level FlightAware Approximate
Tue 01:44:15 PM 41.1748 -75.4308 130° Southeast  Level FlightAware Approximate
Tue 01:45:15 PM 41.1535 -75.3969 141° Southeast  Level FlightAware Approximate
Tue 01:46:15 PM 41.1276 -75.3693 19° North  Level Estimated
Tue 01:47:15 PM 41.1333 -75.3667 293° West  Level FlightAware Approximate
Tue 01:48:15 PM 41.1465 -75.4072 113° Southeast  Level Estimated
Tue 01:49:15 PM 41.1333 -75.3667 293° West  Level FlightAware Approximate
Tue 01:50:15 PM 41.1465 -75.4072 113° Southeast  Level Estimated
Tue 01:51:15 PM 41.1333 -75.3667 293° West  Level FlightAware Approximate
Tue 01:52:15 PM 41.1465 -75.4072 113° Southeast  Level Estimated
Tue 01:53:15 PM 41.1333 -75.3667 293° West  Level FlightAware Approximate
Tue 01:54:15 PM 41.1465 -75.4072 113° Southeast  Level Estimated
Tue 01:55:15 PM 41.1333 -75.3667 293° West  Level FlightAware Approximate
Tue 01:56:15 PM 41.1465 -75.4072 113° Southeast  Level Estimated
Tue 01:57:15 PM 41.1333 -75.3667 113° Southeast  Level FlightAware Approximate

Login

Don't have an account? Register now (free) for customized features, flight alerts, and more!